Accueil
METAR-TAF:

METAR-TAF

Aéroports :

Cassel, Allemagne

latitude: 51-24N, longitude: 009-23E, altitude: 277 m

Observation

Le bulletin a été fait il y a 16 minutes, à 19:20 UTC
Vent 6 kt de ouest/sud-ouest
Température 0°C
Humidité 86%
Pression 1012 hPa
Visibilité 10 km ou plus
Nuages épars à une hauteur de 2800 ft

METAR: EDVK 121920Z 25006KT 9999 SCT028 00/M02 Q1012

Heure: 20:36 (19:36 UTC)

Prévision

Le bulletin a été fait il y a 2 heures et 36 minutes, à 17:00 UTC
Prévision valable du 12 à 18 UTC au 13 à 03 UTC
Vent 10 kt de sud-ouest
Visibilité 10 km ou plus
Nuages fragmentés à une hauteur de 2500 ft
Probabilité 30% :
Temporairement
du 12 à 20 UTC au 13 à 03 UTC
Nuages fragmentés à une hauteur de 1000 ft

TAF: EDVK 121700Z 1218/1303 22010KT 9999 BKN025 PROB30 TEMPO 1220/1303 BKN010

Observations et prévisions météorologiques de plus de 4000 aéroports (messages METAR et TAF).

Les stations disponibles sont représentées par des disques jaunes et rouges sur la carte.

Passer la souris dessus pour voir le nom de la station.

Cliquer dessus pour voir les observations et prévisions météorologiques.

Pour changer de carte: cliquez sur les boutons verts avec une croix noire pour zoomer, sur le bouton vert avec un tiret pour effectuer un zoom arrière, ou sur les flèches vertes pour les cartes adjacentes.


METAR-TAF: